Time;durP1;ratioP1;P1;durP2;ratioP2;P2;SDS_P1;SDS_P2;PMS_P1;PMS_P2;Temp;Humidity;BMP_temperature;BMP_pressure;BME280_temperature;BME280_humidity;BME280_pressure;Samples;Min_cycle;Max_cycle;Signal;HPM_P1;HPM_P2
2023/12/03 00:02:21;;;;;;;0.00;0.00;;;;;;;1.96;94.04;100123.38;4854173;29;20033;-77
2023/12/03 00:08:09;;;;;;;0.10;0.10;;;;;;;1.90;93.92;100112.44;4870882;29;20036;-77
2023/12/03 00:10:44;;;;;;;;;;;;;;;;;;;;;
2023/12/03 00:16:35;;;;;;;0.00;0.00;;;;;;;1.87;93.76;100080.50;4872346;29;20049;-78
2023/12/03 00:19:07;;;;;;;0.00;0.00;;;;;;;1.98;94.30;100095.16;4868321;29;20084;-79
2023/12/03 00:21:33;;;;;;;0.00;0.00;;;;;;;2.00;93.80;100090.38;4852366;29;20043;-76
2023/12/03 00:24:00;;;;;;;0.10;0.10;;;;;;;1.97;93.71;100084.59;4848383;29;20037;-77
2023/12/03 00:26:26;;;;;;;0.08;0.08;;;;;;;2.08;93.50;100086.59;4840804;29;20052;-76
2023/12/03 00:28:51;;;;;;;0.00;0.00;;;;;;;1.94;93.96;100076.94;4863692;29;20029;-76
2023/12/03 00:31:17;;;;;;;0.00;0.00;;;;;;;2.07;94.28;100084.94;4872210;29;20107;-78
2023/12/03 00:33:43;;;;;;;0.10;0.10;;;;;;;2.09;94.62;100080.16;4838007;29;21634;-80
2023/12/03 00:36:08;;;;;;;0.00;0.00;;;;;;;1.99;94.99;100050.16;4854425;29;20037;-78
2023/12/03 00:38:36;;;;;;;0.00;0.00;;;;;;;2.13;94.73;100070.56;4853144;29;20025;-76
2023/12/03 00:41:01;;;;;;;0.00;0.00;;;;;;;2.19;94.74;100077.81;4857326;29;20029;-77
2023/12/03 00:43:27;;;;;;;0.00;0.00;;;;;;;2.16;95.20;100053.97;4832636;29;20135;-78
2023/12/03 00:45:57;;;;;;;0.00;0.00;;;;;;;2.13;95.13;100046.28;4851807;29;20756;-77
2023/12/03 00:48:25;;;;;;;0.00;0.00;;;;;;;2.30;95.31;100057.34;4851615;29;20029;-78
2023/12/03 00:50:51;;;;;;;0.00;0.00;;;;;;;2.32;95.56;100044.47;4840432;29;20037;-78
2023/12/03 00:53:18;;;;;;;0.00;0.00;;;;;;;2.37;94.91;100041.94;4856391;29;20042;-78
2023/12/03 00:55:44;;;;;;;0.00;0.00;;;;;;;2.45;94.78;100040.81;4837703;29;20633;-79
2023/12/03 00:58:09;;;;;;;0.00;0.00;;;;;;;2.51;94.94;100031.88;4850233;29;20049;-77
2023/12/03 01:00:37;;;;;;;0.10;0.10;;;;;;;2.48;95.14;100016.09;4848634;29;20037;-81
2023/12/03 01:03:03;;;;;;;0.00;0.00;;;;;;;2.61;94.72;100032.19;4863378;29;20034;-79
2023/12/03 01:05:30;;;;;;;0.00;0.00;;;;;;;2.73;94.66;100044.91;4848516;29;20503;-79
2023/12/03 01:07:56;;;;;;;0.00;0.00;;;;;;;2.64;95.39;100030.06;4826507;29;20133;-79
2023/12/03 01:10:23;;;;;;;0.00;0.00;;;;;;;2.69;95.46;100022.13;4833067;29;20127;-79
2023/12/03 01:12:49;;;;;;;0.00;0.00;;;;;;;2.61;95.60;100005.19;4854539;29;20111;-78
2023/12/03 01:15:17;;;;;;;0.00;0.00;;;;;;;2.71;94.83;100009.22;4812079;29;20040;-79
2023/12/03 01:17:42;;;;;;;0.00;0.00;;;;;;;2.79;96.00;100030.53;4835986;29;20645;-77
2023/12/03 01:20:08;;;;;;;0.00;0.00;;;;;;;2.81;95.30;100024.91;4844044;29;20048;-77
2023/12/03 01:22:34;;;;;;;0.00;0.00;;;;;;;2.82;95.52;100027.38;4857669;29;20049;-79
2023/12/03 01:25:06;;;;;;;0.10;0.10;;;;;;;2.70;95.74;100004.88;4864674;29;20028;-79
2023/12/03 01:27:34;;;;;;;0.00;0.00;;;;;;;2.78;95.92;100021.59;4843334;29;20048;-78
2023/12/03 01:30:01;;;;;;;0.00;0.00;;;;;;;2.51;96.72;99983.28;4865673;29;20096;-79
2023/12/03 01:33:05;;;;;;;0.00;0.00;;;;;;;2.60;96.73;99995.41;4845033;29;20032;-77
2023/12/03 01:35:30;;;;;;;0.00;0.00;;;;;;;2.66;97.34;100000.97;4866552;29;20068;-77
2023/12/03 01:38:03;;;;;;;0.00;0.00;;;;;;;2.78;96.83;100012.69;4855871;29;20114;-78
2023/12/03 01:40:31;;;;;;;0.10;0.10;;;;;;;2.80;97.42;100013.25;4857474;29;20025;-79
2023/12/03 01:42:57;;;;;;;0.10;0.10;;;;;;;2.90;96.90;100028.97;4866738;29;20104;-79
2023/12/03 01:45:22;;;;;;;0.10;0.10;;;;;;;2.97;96.64;100030.53;4847946;29;20682;-78
2023/12/03 01:47:51;;;;;;;0.00;0.00;;;;;;;3.07;97.45;100046.22;4859222;29;20043;-79
2023/12/03 01:50:18;;;;;;;0.00;0.00;;;;;;;2.95;97.17;100021.84;4849818;29;20041;-79
2023/12/03 01:52:43;;;;;;;0.00;0.00;;;;;;;3.00;98.11;100029.25;4864069;29;20029;-78
2023/12/03 01:55:22;;;;;;;;;;;;;;;;;;;;;
2023/12/03 01:57:47;;;;;;;0.00;0.00;;;;;;;3.01;98.51;100012.00;4857344;29;20048;-78
2023/12/03 02:00:13;;;;;;;0.00;0.00;;;;;;;3.09;98.58;100008.97;4843216;29;20547;-78
2023/12/03 02:02:40;;;;;;;0.00;0.00;;;;;;;3.10;99.12;100001.72;4842160;29;20037;-77
2023/12/03 02:05:08;;;;;;;0.10;0.10;;;;;;;3.24;100.00;100014.00;4841011;29;20547;-77
2023/12/03 02:07:43;;;;;;;;;;;;;;;;;;;;;
2023/12/03 02:10:19;;;;;;;0.00;0.00;;;;;;;3.35;100.00;100015.09;4869349;29;20391;-77
2023/12/03 02:12:44;;;;;;;0.00;0.00;;;;;;;3.12;100.00;99975.28;4851044;29;20031;-78
2023/12/03 02:15:10;;;;;;;0.00;0.00;;;;;;;3.21;100.00;99997.41;4834883;29;20124;-77
2023/12/03 02:17:38;;;;;;;0.00;0.00;;;;;;;3.21;100.00;99995.53;4863346;29;20476;-76
2023/12/03 02:20:06;;;;;;;0.00;0.00;;;;;;;3.23;100.00;99990.72;4859631;29;20097;-76
2023/12/03 02:22:31;;;;;;;0.00;0.00;;;;;;;3.24;100.00;99986.97;4841877;29;20097;-78
2023/12/03 02:24:57;;;;;;;0.00;0.00;;;;;;;3.41;100.00;100003.38;4830228;29;20036;-77
2023/12/03 02:27:22;;;;;;;0.00;0.00;;;;;;;3.45;100.00;99999.16;4824448;29;20357;-78
2023/12/03 02:29:50;;;;;;;0.00;0.00;;;;;;;3.40;100.00;99965.75;4833741;29;20049;-78
2023/12/03 02:32:18;;;;;;;0.00;0.00;;;;;;;3.46;100.00;99964.84;4856453;29;20510;-76
2023/12/03 02:34:44;;;;;;;0.00;0.00;;;;;;;3.55;100.00;99971.59;4850409;29;20152;-76
2023/12/03 02:37:09;;;;;;;0.00;0.00;;;;;;;3.50;100.00;99957.91;4871552;29;20654;-76
2023/12/03 02:39:37;;;;;;;0.00;0.00;;;;;;;3.53;100.00;99945.81;4850079;29;20037;-77
2023/12/03 02:42:03;;;;;;;0.00;0.00;;;;;;;3.71;100.00;99958.44;4855023;29;20096;-76
2023/12/03 02:44:31;;;;;;;0.00;0.00;;;;;;;3.73;100.00;99948.22;4854683;29;20038;-75
2023/12/03 02:46:56;;;;;;;0.00;0.00;;;;;;;3.90;100.00;99953.75;4848708;29;20028;-77
2023/12/03 02:49:22;;;;;;;0.00;0.00;;;;;;;3.73;100.00;99929.28;4847625;29;20044;-78
2023/12/03 02:51:52;;;;;;;0.00;0.00;;;;;;;3.93;100.00;99948.72;4842368;29;20033;-78
2023/12/03 02:54:18;;;;;;;0.00;0.00;;;;;;;3.92;100.00;99941.66;4853987;29;20476;-78
2023/12/03 02:56:45;;;;;;;0.00;0.00;;;;;;;3.89;100.00;99928.59;4849609;29;20123;-77
2023/12/03 02:59:11;;;;;;;0.00;0.00;;;;;;;3.80;100.00;99902.97;4852710;29;20021;-78
2023/12/03 03:01:36;;;;;;;0.00;0.00;;;;;;;3.89;100.00;99912.38;4869666;29;20044;-78
2023/12/03 03:04:02;;;;;;;0.00;0.00;;;;;;;3.91;100.00;99898.59;4853303;29;20029;-80
2023/12/03 03:06:34;;;;;;;0.00;0.00;;;;;;;3.91;100.00;99898.59;4856319;29;20468;-79
2023/12/03 03:09:00;;;;;;;0.00;0.00;;;;;;;4.00;100.00;99914.25;4857539;29;20508;-79
2023/12/03 03:11:25;;;;;;;0.00;0.00;;;;;;;4.16;100.00;99933.53;4841363;29;20045;-79
2023/12/03 03:13:51;;;;;;;0.00;0.00;;;;;;;4.07;100.00;99918.72;4845523;29;20601;-80
2023/12/03 03:16:16;;;;;;;0.00;0.00;;;;;;;4.12;100.00;99911.56;4819931;29;20072;-80
2023/12/03 03:18:42;;;;;;;0.00;0.00;;;;;;;4.18;100.00;99912.50;4819343;29;20124;-78
2023/12/03 03:21:09;;;;;;;0.00;0.00;;;;;;;4.20;100.00;99921.19;4860128;29;20033;-79
2023/12/03 03:23:36;;;;;;;0.00;0.00;;;;;;;4.16;100.00;99906.47;4853265;29;20037;-79
2023/12/03 03:26:02;;;;;;;0.00;0.00;;;;;;;4.23;100.00;99909.88;4860490;29;20449;-78
2023/12/03 03:28:27;;;;;;;0.10;0.10;;;;;;;4.12;100.00;99894.50;4868789;29;20036;-79
2023/12/03 03:30:55;;;;;;;0.00;0.00;;;;;;;4.18;100.00;99893.56;4832492;29;20055;-79
2023/12/03 03:33:21;;;;;;;0.00;0.00;;;;;;;4.27;100.00;99896.72;4848273;29;20392;-79
2023/12/03 03:35:46;;;;;;;0.00;0.00;;;;;;;4.23;100.00;99887.41;4862906;29;20041;-77
2023/12/03 03:38:19;;;;;;;0.10;0.10;;;;;;;4.25;100.00;99886.13;4858506;29;20036;-77
2023/12/03 03:40:45;;;;;;;0.00;0.00;;;;;;;4.35;100.00;99905.31;4863932;29;20104;-79
2023/12/03 03:43:10;;;;;;;0.00;0.00;;;;;;;4.37;100.00;99903.16;4856469;29;20036;-79
2023/12/03 03:45:36;;;;;;;0.00;0.00;;;;;;;4.27;100.00;99892.13;4867542;29;20028;-78
2023/12/03 03:48:01;;;;;;;0.00;0.00;;;;;;;4.24;100.00;99884.47;4839909;29;20488;-78
2023/12/03 03:50:27;;;;;;;0.00;0.00;;;;;;;4.33;100.00;99896.56;4837141;29;20033;-78
2023/12/03 03:52:52;;;;;;;0.00;0.00;;;;;;;4.26;100.00;99874.22;4852751;29;20024;-77
2023/12/03 03:55:18;;;;;;;0.10;0.10;;;;;;;4.45;100.00;99906.56;4849588;29;20054;-78
2023/12/03 03:57:46;;;;;;;0.00;0.00;;;;;;;4.37;100.00;99899.66;4855261;29;20600;-78
2023/12/03 04:00:14;;;;;;;0.00;0.00;;;;;;;4.34;100.00;99892.81;4868331;29;20626;-78
2023/12/03 04:02:42;;;;;;;0.00;0.00;;;;;;;4.48;100.00;99920.47;4857933;29;20053;-79
2023/12/03 04:05:10;;;;;;;0.00;0.00;;;;;;;4.40;100.00;99895.66;4829826;29;20040;-79
2023/12/03 04:07:39;;;;;;;0.00;0.00;;;;;;;4.45;100.00;99890.31;4854919;29;20044;-77
2023/12/03 04:10:05;;;;;;;0.00;0.00;;;;;;;4.58;100.00;99902.78;4838981;29;20037;-77
2023/12/03 04:12:30;;;;;;;0.00;0.00;;;;;;;4.53;100.00;99892.69;4829022;29;20036;-80
2023/12/03 04:14:58;;;;;;;0.00;0.00;;;;;;;4.61;100.00;99903.13;4853213;29;20025;-76
2023/12/03 04:17:26;;;;;;;0.00;0.00;;;;;;;4.67;100.00;99901.34;4843013;29;20170;-77
2023/12/03 04:19:51;;;;;;;0.10;0.10;;;;;;;4.66;100.00;99897.81;4836373;29;20106;-78
2023/12/03 04:22:17;;;;;;;0.10;0.10;;;;;;;4.70;100.00;99896.28;4878944;29;20117;-78
2023/12/03 04:24:45;;;;;;;0.00;0.00;;;;;;;4.62;100.00;99882.28;4823157;29;20037;-79
2023/12/03 04:27:10;;;;;;;0.00;0.00;;;;;;;4.64;100.00;99891.78;4850445;29;20029;-78
2023/12/03 04:29:38;;;;;;;0.00;0.00;;;;;;;4.61;100.00;99878.75;4861538;29;20399;-78
2023/12/03 04:32:04;;;;;;;0.00;0.00;;;;;;;4.68;100.00;99884.84;4867144;29;20039;-77
2023/12/03 04:34:38;;;;;;;0.00;0.00;;;;;;;4.71;100.00;99887.06;4875975;29;20028;-76
2023/12/03 04:37:03;;;;;;;0.10;0.10;;;;;;;4.75;100.00;99892.84;4844936;29;20773;-76
2023/12/03 04:39:38;;;;;;;0.00;0.00;;;;;;;4.66;100.00;99889.69;4833659;29;20037;-77
2023/12/03 04:42:12;;;;;;;;;;;;;;;4.75;100.00;99903.69;4855809;29;20460;-77
2023/12/03 04:44:38;;;;;;;0.00;0.00;;;;;;;4.53;100.00;99873.72;4847516;29;19927;-77
2023/12/03 04:47:31;;;;;;;0.00;0.00;;;;;;;4.47;100.00;99869.28;4839434;29;20927;-77
2023/12/03 04:49:57;;;;;;;0.00;0.00;;;;;;;4.45;100.00;99865.97;4860258;29;20107;-75
2023/12/03 04:52:22;;;;;;;0.10;0.10;;;;;;;4.39;100.00;99856.09;4867318;29;20451;-77
2023/12/03 04:54:47;;;;;;;0.00;0.00;;;;;;;4.45;100.00;99871.38;4867472;29;20053;-76
2023/12/03 04:57:15;;;;;;;0.00;0.00;;;;;;;4.41;100.00;99870.19;4858230;29;20026;-77
2023/12/03 04:59:43;;;;;;;0.00;0.00;;;;;;;4.28;100.00;99864.00;4843586;29;20044;-77
2023/12/03 05:02:09;;;;;;;0.10;0.10;;;;;;;4.20;100.00;99853.53;4877102;29;20063;-76
2023/12/03 05:04:34;;;;;;;0.00;0.00;;;;;;;4.21;100.00;99857.06;4824183;29;20120;-76
2023/12/03 05:07:03;;;;;;;0.00;0.00;;;;;;;4.19;100.00;99854.59;4862985;29;20044;-76
2023/12/03 05:09:28;;;;;;;0.00;0.00;;;;;;;4.12;100.00;99845.78;4865894;29;20067;-77
2023/12/03 05:11:56;;;;;;;0.00;0.00;;;;;;;4.22;100.00;99856.84;4861000;29;20420;-77
2023/12/03 05:14:27;;;;;;;0.00;0.00;;;;;;;4.13;100.00;99832.03;4849674;29;20039;-77
2023/12/03 05:16:52;;;;;;;0.00;0.00;;;;;;;4.20;100.00;99837.28;4842977;29;20033;-77
2023/12/03 05:19:17;;;;;;;0.00;0.00;;;;;;;4.26;100.00;99841.75;4860604;29;20063;-77
2023/12/03 05:21:43;;;;;;;0.00;0.00;;;;;;;4.30;100.00;99833.97;4856528;29;20040;-75
2023/12/03 05:24:09;;;;;;;0.10;0.10;;;;;;;4.39;100.00;99842.56;4854863;29;20039;-77
2023/12/03 05:26:34;;;;;;;0.00;0.00;;;;;;;4.30;100.00;99831.28;4873755;29;20096;-77
2023/12/03 05:29:02;;;;;;;0.00;0.00;;;;;;;4.40;100.00;99841.50;4875609;29;20048;-77
2023/12/03 05:31:29;;;;;;;0.00;0.00;;;;;;;4.34;100.00;99833.25;4861926;29;20051;-77
2023/12/03 05:33:54;;;;;;;0.00;0.00;;;;;;;4.34;100.00;99835.97;4853469;29;20018;-77
2023/12/03 05:36:23;;;;;;;0.00;0.00;;;;;;;4.28;100.00;99833.38;4850040;29;20033;-78
2023/12/03 05:39:03;;;;;;;0.00;0.00;;;;;;;4.44;100.00;99843.50;4847340;29;20021;-78
2023/12/03 05:41:36;;;;;;;0.00;0.00;;;;;;;4.36;100.00;99831.13;4865492;29;20505;-77
2023/12/03 05:44:02;;;;;;;0.00;0.00;;;;;;;4.43;100.00;99838.31;4866456;29;20361;-77
2023/12/03 05:46:39;;;;;;;0.00;0.00;;;;;;;4.31;100.00;99824.81;4852148;29;20036;-78
2023/12/03 05:49:06;;;;;;;0.00;0.00;;;;;;;4.30;100.00;99821.25;4879123;29;20036;-78
2023/12/03 05:51:34;;;;;;;0.00;0.00;;;;;;;4.37;100.00;99832.78;4836082;29;20043;-78
2023/12/03 05:53:59;;;;;;;0.00;0.00;;;;;;;4.41;100.00;99837.72;4822715;29;20037;-76
2023/12/03 05:56:27;;;;;;;0.00;0.00;;;;;;;4.35;100.00;99823.25;4848643;29;20037;-77
2023/12/03 05:58:52;;;;;;;0.10;0.10;;;;;;;4.42;100.00;99833.94;4850032;29;20902;-80
2023/12/03 06:01:23;;;;;;;0.00;0.00;;;;;;;4.43;100.00;99824.78;4843932;29;20022;-79
2023/12/03 06:03:59;;;;;;;0.00;0.00;;;;;;;4.56;100.00;99854.28;4849307;29;20057;-79
2023/12/03 06:06:27;;;;;;;0.03;0.03;;;;;;;4.59;100.00;99845.66;4856115;29;20105;-79
2023/12/03 06:08:52;;;;;;;0.00;0.00;;;;;;;4.57;100.00;99842.41;4853322;29;20048;-80
2023/12/03 06:11:17;;;;;;;0.03;0.03;;;;;;;4.51;100.00;99824.38;4850200;29;20036;-79
2023/12/03 06:13:43;;;;;;;0.00;0.00;;;;;;;4.61;100.00;99838.13;4860054;29;20021;-79
2023/12/03 06:16:09;;;;;;;0.00;0.00;;;;;;;4.72;100.00;99844.56;4813707;29;20033;-79
2023/12/03 06:18:42;;;;;;;0.00;0.00;;;;;;;4.67;100.00;99839.88;4838234;29;20041;-78
2023/12/03 06:21:08;;;;;;;0.03;0.03;;;;;;;4.67;100.00;99839.03;4857061;29;20037;-79
2023/12/03 06:23:34;;;;;;;0.00;0.00;;;;;;;4.56;100.00;99827.19;4837979;29;20048;-78
2023/12/03 06:25:59;;;;;;;0.00;0.00;;;;;;;4.58;100.00;99829.66;4836183;29;20080;-78
2023/12/03 06:28:25;;;;;;;0.00;0.00;;;;;;;4.51;100.00;99817.09;4834155;29;20024;-79
2023/12/03 06:30:53;;;;;;;0.00;0.00;;;;;;;4.40;100.00;99803.59;4863435;29;20018;-78
2023/12/03 06:33:19;;;;;;;0.00;0.00;;;;;;;4.50;100.00;99818.16;4855522;29;20055;-79
2023/12/03 06:35:45;;;;;;;0.00;0.00;;;;;;;4.62;100.00;99833.53;4854453;29;20135;-78
2023/12/03 06:38:11;;;;;;;0.10;0.10;;;;;;;4.52;100.00;99820.63;4857100;29;20189;-78
2023/12/03 06:40:39;;;;;;;0.00;0.00;;;;;;;4.45;100.00;99811.81;4863297;29;20029;-79
2023/12/03 06:43:06;;;;;;;0.00;0.00;;;;;;;4.54;100.00;99826.59;4848883;29;20053;-79
2023/12/03 06:45:32;;;;;;;0.00;0.00;;;;;;;4.52;100.00;99818.72;4836690;29;20050;-78
2023/12/03 06:47:57;;;;;;;0.00;0.00;;;;;;;4.43;100.00;99803.13;4837164;29;20037;-78
2023/12/03 06:50:25;;;;;;;0.00;0.00;;;;;;;4.46;100.00;99806.16;4835145;29;20036;-78
2023/12/03 06:52:51;;;;;;;0.00;0.00;;;;;;;4.53;100.00;99824.97;4860066;29;20030;-77
2023/12/03 06:55:16;;;;;;;0.10;0.10;;;;;;;4.62;100.00;99834.34;4847329;29;20086;-77
2023/12/03 06:57:42;;;;;;;0.00;0.00;;;;;;;4.56;100.00;99829.91;4853690;29;20033;-78
2023/12/03 07:00:08;;;;;;;0.00;0.00;;;;;;;4.48;100.00;99822.16;4836676;29;20067;-77
2023/12/03 07:02:43;;;;;;;0.00;0.00;;;;;;;4.58;100.00;99838.59;4851755;29;20045;-77
2023/12/03 07:05:08;;;;;;;0.00;0.00;;;;;;;4.42;100.00;99806.88;4858625;29;20044;-78
2023/12/03 07:07:34;;;;;;;0.00;0.00;;;;;;;4.53;100.00;99820.38;4845375;29;20033;-77
2023/12/03 07:09:59;;;;;;;0.00;0.00;;;;;;;4.57;100.00;99826.16;4866025;29;20480;-80
2023/12/03 07:12:25;;;;;;;0.00;0.00;;;;;;;4.46;100.00;99802.63;4857199;29;20670;-79
2023/12/03 07:14:53;;;;;;;0.00;0.00;;;;;;;4.59;100.00;99818.59;4863149;29;20029;-78
2023/12/03 07:17:18;;;;;;;0.00;0.00;;;;;;;4.66;100.00;99824.69;4854902;29;20041;-77
2023/12/03 07:19:46;;;;;;;0.00;0.00;;;;;;;4.67;100.00;99817.38;4821273;29;20033;-77
2023/12/03 07:22:15;;;;;;;0.00;0.00;;;;;;;4.69;100.00;99813.38;4854523;29;20035;-78
2023/12/03 07:25:20;;;;;;;0.00;0.00;;;;;;;4.85;100.00;99827.22;4851634;29;20512;-74
2023/12/03 07:27:55;;;;;;;0.00;0.00;;;;;;;4.63;100.00;99792.69;4863150;29;20049;-76
2023/12/03 07:30:21;;;;;;;0.00;0.00;;;;;;;4.75;100.00;99810.78;4834265;29;20040;-75
2023/12/03 07:32:47;;;;;;;0.00;0.00;;;;;;;4.80;100.00;99819.78;4839054;29;20133;-76
2023/12/03 07:35:13;;;;;;;0.00;0.00;;;;;;;4.75;100.00;99813.47;4838486;29;20128;-79
2023/12/03 07:37:41;;;;;;;0.10;0.10;;;;;;;4.78;100.00;99813.81;4824223;29;20480;-79
2023/12/03 07:40:27;;;;;;;0.00;0.00;;;;;;;4.92;100.00;99833.31;4868180;29;20029;-79
2023/12/03 07:42:53;;;;;;;0.00;0.00;;;;;;;4.65;100.00;99784.31;4845159;29;20034;-80
2023/12/03 07:45:36;;;;;;;0.00;0.00;;;;;;;4.79;100.00;99806.47;4855346;29;20449;-79
2023/12/03 07:48:01;;;;;;;0.00;0.00;;;;;;;5.02;100.00;99836.19;4843220;29;20396;-78
2023/12/03 07:50:27;;;;;;;0.00;0.00;;;;;;;4.98;100.00;99821.47;4860241;29;20089;-78
2023/12/03 07:53:05;;;;;;;;;;;;;;;;;;;;;
2023/12/03 07:56:14;;;;;;;0.00;0.00;;;;;;;5.09;100.00;99832.50;4864021;29;20053;-77
2023/12/03 07:58:44;;;;;;;0.00;0.00;;;;;;;4.77;100.00;99776.94;4849805;29;20057;-77
2023/12/03 08:02:28;;;;;;;;;;;;;;;;;;;;;
2023/12/03 08:04:57;;;;;;;0.00;0.00;;;;;;;4.88;100.00;99795.03;4772541;29;20469;-77
2023/12/03 08:07:26;;;;;;;0.00;0.00;;;;;;;5.02;100.00;99802.84;4789969;29;20412;-77
2023/12/03 08:10:02;;;;;;;;;;;;;;;;;;;;;
2023/12/03 08:16:01;;;;;;;0.00;0.00;;;;;;;5.30;100.00;99828.25;4813318;29;20537;-78
2023/12/03 08:18:42;;;;;;;0.00;0.00;;;;;;;5.10;100.00;99790.78;4794487;29;20061;-78
2023/12/03 08:21:38;;;;;;;;;;;;;;;;;;;;;
2023/12/03 08:24:20;;;;;;;;;;;;;;;;;;;;;
2023/12/03 08:27:29;;;;;;;0.08;0.08;;;;;;;5.07;100.00;99771.22;4824138;29;20767;-77
2023/12/03 08:30:18;;;;;;;0.00;0.00;;;;;;;5.47;100.00;99822.84;4852314;29;20037;-78
2023/12/03 08:32:54;;;;;;;0.00;0.00;;;;;;;5.38;100.00;99798.81;4861391;29;20463;-78
2023/12/03 08:35:43;;;;;;;0.00;0.00;;;;;;;5.32;100.00;99797.13;4852972;29;20088;-77
2023/12/03 08:38:14;;;;;;;0.00;0.00;;;;;;;5.25;100.00;99770.16;4861862;29;20044;-79
2023/12/03 08:40:44;;;;;;;0.00;0.00;;;;;;;5.41;100.00;99802.94;4850197;29;20147;-80
2023/12/03 08:43:43;;;;;;;;;;;;;;;;;;;;;
2023/12/03 08:46:24;;;;;;;0.00;0.00;;;;;;;5.44;100.00;99790.78;4853460;29;20041;-76
2023/12/03 08:48:56;;;;;;;0.00;0.00;;;;;;;5.40;100.00;99766.88;4862797;29;20025;-77
2023/12/03 08:51:32;;;;;;;0.00;0.00;;;;;;;5.68;100.00;99797.66;4862374;29;20673;-77
2023/12/03 08:54:01;;;;;;;0.00;0.00;;;;;;;5.79;100.00;99797.81;4838663;29;20108;-78
2023/12/03 08:56:46;;;;;;;;;;;;;;;;;;;;;
2023/12/03 08:59:25;;;;;;;;;;;;;;;;;;;;;
2023/12/03 09:02:10;;;;;;;0.00;0.00;;;;;;;6.23;100.00;99808.75;4838674;29;20030;-78
2023/12/03 09:05:03;;;;;;;;;;;;;;;;;;;;;
2023/12/03 09:07:33;;;;;;;0.10;0.10;;;;;;;6.00;100.00;99748.22;4850880;29;20052;-81
2023/12/03 09:10:14;;;;;;;;;;;;;;;;;;;;;
2023/12/03 09:13:09;;;;;;;0.10;0.10;;;;;;;6.31;100.00;99789.31;4849421;29;20020;-77
2023/12/03 13:46:06;;;;;;;0.00;0.00;;;;;;;9.14;86.24;99624.72;5776589;23;20063;-79
2023/12/03 13:48:31;;;;;;;0.00;0.00;;;;;;;8.92;86.79;99622.28;4856325;29;20045;-81
2023/12/03 13:50:57;;;;;;;0.00;0.00;;;;;;;8.67;88.08;99623.94;4856793;29;20357;-80
2023/12/03 13:53:25;;;;;;;0.00;0.00;;;;;;;8.24;89.71;99584.41;4808364;29;20350;-80
2023/12/03 13:55:50;;;;;;;0.00;0.00;;;;;;;8.30;91.30;99621.44;4848319;29;20128;-82
2023/12/03 13:58:15;;;;;;;0.00;0.00;;;;;;;8.11;93.44;99613.78;4857337;29;20803;-82
2023/12/03 14:00:41;;;;;;;0.00;0.00;;;;;;;7.69;96.46;99592.97;4854290;29;20033;-82
2023/12/03 14:03:06;;;;;;;0.00;0.00;;;;;;;7.63;99.25;99618.53;4817137;29;20424;-81
2023/12/03 14:05:32;;;;;;;0.00;0.00;;;;;;;7.29;100.00;99591.75;4836529;29;20048;-83
2023/12/03 14:07:59;;;;;;;0.00;0.00;;;;;;;7.07;100.00;99573.69;4865199;29;20044;-84
2023/12/03 14:10:27;;;;;;;0.00;0.00;;;;;;;7.02;100.00;99570.91;4849081;29;20077;-84
2023/12/03 14:12:53;;;;;;;0.00;0.00;;;;;;;6.93;100.00;99553.47;4837387;29;20033;-83
2023/12/03 14:15:21;;;;;;;0.00;0.00;;;;;;;6.86;100.00;99528.44;4836873;29;20053;-84
2023/12/03 14:17:49;;;;;;;0.10;0.10;;;;;;;7.03;100.00;99548.09;4868539;29;20026;-83
2023/12/03 14:20:14;;;;;;;0.00;0.00;;;;;;;7.38;100.00;99583.88;4851248;29;20025;-82
2023/12/03 14:22:47;;;;;;;0.00;0.00;;;;;;;7.51;100.00;99591.56;4861876;29;20092;-83
2023/12/03 14:25:26;;;;;;;;;;;;;;;;;;;;;
2023/12/03 14:28:42;;;;;;;;;;;;;;;;;;;;;
2023/12/03 14:31:47;;;;;;;;;;;;;;;;;;;;;
2023/12/03 14:35:12;;;;;;;;;;;;;;;;;;;;;
2023/12/03 14:37:52;;;;;;;0.00;0.00;;;;;;;7.45;100.00;99563.50;4832698;29;20151;-84
2023/12/03 14:40:25;;;;;;;0.00;0.00;;;;;;;7.30;100.00;99566.16;4851139;29;20041;-82
2023/12/03 14:43:03;;;;;;;;;;;;;;;;;;;;;
2023/12/03 14:49:40;;;;;;;;;;;;;;;;;;;;;
2023/12/03 14:52:54;;;;;;;0.00;0.00;;;;;;;7.02;100.00;99521.19;4863173;29;20128;-86
2023/12/03 14:55:51;;;;;;;0.00;0.00;;;;;;;6.99;100.00;99517.06;4857718;29;20041;-85
2023/12/03 16:59:46;;;;;;;0.00;0.00;;;;;;;6.97;100.00;99459.47;5870619;23;20118;-78
2023/12/03 17:02:14;;;;;;;0.00;0.00;;;;;;;6.74;100.00;99407.16;4811926;29;20114;-80
2023/12/03 17:04:41;;;;;;;0.00;0.00;;;;;;;6.76;100.00;99401.47;4786305;29;20084;-78
2023/12/03 17:07:17;;;;;;;;;;;;;;;;;;;;;
2023/12/03 17:10:09;;;;;;;0.00;0.00;;;;;;;6.78;100.00;99416.44;4824007;29;20146;-80
2023/12/03 17:12:33;;;;;;;0.00;0.00;;;;;;;6.44;100.00;99359.78;4815031;29;20406;-81
2023/12/03 17:15:37;;;;;;;;;;;;;;;;;;;;;
2023/12/03 17:18:12;;;;;;;;;;;;;;;;;;;;;
2023/12/03 17:20:58;;;;;;;0.10;0.10;;;;;;;6.64;100.00;99369.94;4819361;29;20674;-80
2023/12/03 17:23:33;;;;;;;0.00;0.00;;;;;;;6.83;100.00;99399.31;4807608;29;20027;-80
2023/12/03 17:26:19;;;;;;;0.00;0.00;;;;;;;6.80;100.00;99389.81;4818928;29;20034;-82
2023/12/03 17:28:47;;;;;;;0.00;0.00;;;;;;;6.82;100.00;99395.81;4815448;29;20030;-84
2023/12/03 17:31:37;;;;;;;0.00;0.00;;;;;;;7.04;100.00;99426.56;4829352;29;20924;-86
2023/12/03 17:34:06;;;;;;;0.00;0.00;;;;;;;6.68;100.00;99364.78;4803450;29;20044;-82
2023/12/03 17:39:54;;;;;;;0.00;0.00;;;;;;;7.05;100.00;99401.84;4803938;29;20033;-83
2023/12/03 17:47:02;;;;;;;0.00;0.00;;;;;;;6.91;100.00;99357.25;4777273;29;20066;-82
2023/12/03 17:49:34;;;;;;;0.00;0.00;;;;;;;7.04;100.00;99367.59;4780222;29;20039;-77
2023/12/03 17:52:09;;;;;;;0.00;0.00;;;;;;;7.07;100.00;99367.06;4793778;29;20070;-76
2023/12/03 18:01:35;;;;;;;0.00;0.00;;;;;;;7.09;100.00;99356.72;4808358;29;20561;-79
2023/12/03 18:07:56;;;;;;;;;;;;;;;;;;;;;
2023/12/03 18:10:47;;;;;;;0.00;0.00;;;;;;;7.18;100.00;99361.63;4779008;29;20647;-80
2023/12/03 18:13:18;;;;;;;0.10;0.10;;;;;;;7.14;100.00;99351.31;4806819;29;20750;-82
2023/12/03 18:16:07;;;;;;;0.00;0.00;;;;;;;6.92;100.00;99293.63;4814790;29;20067;-79
2023/12/03 18:18:42;;;;;;;0.00;0.00;;;;;;;7.18;100.00;99327.09;4813632;29;20037;-78
2023/12/03 18:21:07;;;;;;;;;;;;;;;7.38;100.00;99341.81;4823445;29;20030;-79
2023/12/03 18:23:33;;;;;;;0.00;0.00;;;;;;;7.15;100.00;99304.00;4811223;29;19939;-78
2023/12/03 18:26:18;;;;;;;0.00;0.00;;;;;;;7.34;100.00;99338.81;4800072;29;20041;-80
2023/12/03 18:28:47;;;;;;;0.00;0.00;;;;;;;7.37;100.00;99338.25;4791572;29;20037;-80
2023/12/03 18:31:32;;;;;;;0.00;0.00;;;;;;;7.10;100.00;99287.69;4803851;29;20049;-79
2023/12/03 18:33:57;;;;;;;;;;;;;;;7.38;100.00;99339.91;4820030;29;20118;-79
2023/12/03 18:36:43;;;;;;;0.00;0.00;;;;;;;7.28;100.00;99318.16;4816088;29;20019;-78
2023/12/03 18:39:10;;;;;;;0.00;0.00;;;;;;;7.28;100.00;99299.09;4813841;29;20417;-80
2023/12/03 18:41:38;;;;;;;0.00;0.00;;;;;;;7.56;100.00;99324.13;4792853;29;20125;-80
2023/12/03 18:44:04;;;;;;;0.00;0.00;;;;;;;7.38;100.00;99293.66;4800830;29;21925;-79
2023/12/03 18:46:29;;;;;;;0.00;0.00;;;;;;;7.62;100.00;99323.03;4815677;29;20482;-78
2023/12/03 18:48:55;;;;;;;0.00;0.00;;;;;;;7.54;100.00;99304.56;4816513;29;20041;-78
2023/12/03 18:51:23;;;;;;;0.00;0.00;;;;;;;7.56;100.00;99296.91;4816372;29;20037;-80
2023/12/03 18:53:48;;;;;;;0.00;0.00;;;;;;;7.53;100.00;99292.03;4790613;29;20200;-80
2023/12/03 18:56:14;;;;;;;0.00;0.00;;;;;;;7.57;100.00;99301.28;4809182;29;20172;-81
2023/12/03 18:58:40;;;;;;;0.00;0.00;;;;;;;7.70;100.00;99317.03;4792783;29;20031;-79
2023/12/03 19:01:08;;;;;;;0.00;0.00;;;;;;;7.61;100.00;99288.78;4799735;29;20062;-80
2023/12/03 19:03:33;;;;;;;0.00;0.00;;;;;;;7.72;100.00;99306.69;4794728;29;20130;-80
2023/12/03 19:05:59;;;;;;;0.00;0.00;;;;;;;7.75;100.00;99289.81;4803525;29;20481;-80
2023/12/03 19:08:25;;;;;;;0.10;0.10;;;;;;;7.74;100.00;99293.66;4796816;29;20500;-80
2023/12/03 19:10:54;;;;;;;0.00;0.00;;;;;;;7.77;100.00;99292.25;4818719;29;20385;-80
2023/12/03 19:13:21;;;;;;;0.00;0.00;;;;;;;7.84;100.00;99299.06;4800149;29;20494;-79
2023/12/03 19:15:51;;;;;;;0.00;0.00;;;;;;;7.81;100.00;99283.28;4813032;29;20035;-79
2023/12/03 19:18:16;;;;;;;0.00;0.00;;;;;;;7.83;100.00;99272.13;4797551;29;20045;-81
2023/12/03 19:20:42;;;;;;;0.00;0.00;;;;;;;7.85;100.00;99278.91;4792777;29;20038;-79
2023/12/03 19:23:08;;;;;;;0.00;0.00;;;;;;;7.94;100.00;99284.59;4788977;29;20380;-79
2023/12/03 19:25:33;;;;;;;0.00;0.00;;;;;;;7.92;100.00;99270.47;4808178;29;20046;-80
2023/12/03 19:28:01;;;;;;;0.00;0.00;;;;;;;7.75;100.00;99238.09;4814756;29;20055;-79